Time;durP1;ratioP1;P1;durP2;ratioP2;P2;SDS_P1;SDS_P2;PMS_P1;PMS_P2;Temp;Humidity;BMP_temperature;BMP_pressure;BME280_temperature;BME280_humidity;BME280_pressure;Samples;Min_cycle;Max_cycle;Signal;HPM_P1;HPM_P2
2023/09/27 03:55:17;;;;;;;9.65;5.70;;;;;;;14.16;100.00;101123.91;5984331;27;20150;-88
2023/09/27 03:58:21;;;;;;;10.13;5.47;;;;;;;14.22;100.00;101130.47;5429449;32;34458;-89
2023/09/27 04:01:24;;;;;;;10.27;6.03;;;;;;;14.22;100.00;101131.31;5403975;32;34581;-87
2023/09/27 04:04:27;;;;;;;9.88;6.12;;;;;;;14.19;100.00;101130.84;5413888;32;33613;-86
2023/09/27 04:07:30;;;;;;;9.25;5.37;;;;;;;14.16;100.00;101133.91;5421408;32;33408;-86
2023/09/27 04:10:33;;;;;;;7.05;5.30;;;;;;;14.19;100.00;101128.97;5408792;32;32865;-85
2023/09/27 04:13:36;;;;;;;8.55;5.18;;;;;;;14.14;100.00;101128.66;5420743;32;33913;-86
2023/09/27 04:16:39;;;;;;;7.80;5.70;;;;;;;14.12;100.00;101128.00;5408242;32;33485;-85
2023/09/27 04:19:42;;;;;;;8.75;5.53;;;;;;;14.06;100.00;101124.16;5420331;32;33308;-86
2023/09/27 04:22:47;;;;;;;14.93;5.35;;;;;;;14.11;100.00;101126.31;5420384;32;34142;-86
2023/09/27 04:25:50;;;;;;;9.90;5.43;;;;;;;14.10;100.00;101119.22;5420632;32;32980;-86
2023/09/27 04:28:53;;;;;;;9.82;6.07;;;;;;;14.04;100.00;101122.66;5420683;32;34272;-86
2023/09/27 04:31:56;;;;;;;11.20;5.65;;;;;;;13.98;100.00;101132.34;5408561;32;33617;-86
2023/09/27 04:34:59;;;;;;;9.15;5.75;;;;;;;13.96;100.00;101136.25;5408704;32;33979;-85
2023/09/27 04:38:04;;;;;;;14.93;5.85;;;;;;;13.95;100.00;101139.97;5408244;32;34206;-85
2023/09/27 04:41:08;;;;;;;7.75;5.65;;;;;;;13.96;100.00;101139.81;5408806;32;34054;-85
2023/09/27 04:44:15;;;;;;;11.27;5.35;;;;;;;14.02;100.00;101140.94;5436604;32;34246;-85
2023/09/27 04:47:18;;;;;;;12.65;5.82;;;;;;;14.03;100.00;101129.94;5411104;32;33264;-85
2023/09/27 04:50:21;;;;;;;8.60;5.70;;;;;;;14.07;100.00;101138.56;5424639;32;33070;-85
2023/09/27 04:53:24;;;;;;;8.68;5.55;;;;;;;14.19;100.00;101136.25;5436586;32;32876;-85
2023/09/27 04:56:28;;;;;;;8.93;5.53;;;;;;;14.26;100.00;101143.44;5426051;32;33016;-85
2023/09/27 04:59:31;;;;;;;7.97;5.72;;;;;;;14.27;100.00;101149.69;5429155;32;33542;-85
2023/09/27 05:02:33;;;;;;;13.85;6.37;;;;;;;14.26;100.00;101146.16;5417307;32;33718;-85
2023/09/27 05:05:37;;;;;;;7.87;5.40;;;;;;;14.27;100.00;101144.28;5441143;32;34160;-85
2023/09/27 05:08:40;;;;;;;12.18;5.70;;;;;;;14.29;100.00;101143.06;5411519;32;33316;-86
2023/09/27 05:11:45;;;;;;;9.23;6.03;;;;;;;14.32;100.00;101143.75;5436694;32;33330;-86
2023/09/27 05:14:48;;;;;;;9.77;6.18;;;;;;;14.34;100.00;101141.69;5436651;32;33098;-86
2023/09/27 05:17:52;;;;;;;12.65;6.20;;;;;;;14.35;100.00;101141.50;5410504;32;33328;-86
2023/09/27 05:20:56;;;;;;;10.65;5.75;;;;;;;14.43;100.00;101151.44;5422467;32;34040;-86
2023/09/27 05:23:59;;;;;;;11.23;5.80;;;;;;;14.52;100.00;101153.91;5398782;32;34104;-86
2023/09/27 05:27:03;;;;;;;15.35;7.05;;;;;;;14.68;100.00;101155.59;5436059;32;33332;-86
2023/09/27 05:30:11;;;;;;;9.82;6.55;;;;;;;14.79;100.00;101154.28;5421565;32;33399;-86
2023/09/27 05:33:14;;;;;;;12.25;6.25;;;;;;;14.87;100.00;101153.38;5417390;32;33568;-85
2023/09/27 05:36:17;;;;;;;10.80;6.28;;;;;;;14.97;100.00;101159.34;5406190;32;31608;-85
2023/09/27 05:39:20;;;;;;;8.48;5.90;;;;;;;15.11;100.00;101165.78;5405847;32;34330;-85
2023/09/27 05:42:24;;;;;;;13.43;5.87;;;;;;;15.22;100.00;101164.47;5421362;32;33060;-86
2023/09/27 05:45:27;;;;;;;13.35;6.15;;;;;;;15.28;100.00;101172.69;5421582;32;34744;-85
2023/09/27 05:48:30;;;;;;;13.50;6.75;;;;;;;15.42;100.00;101162.84;5409711;32;33460;-85
2023/09/27 05:51:33;;;;;;;9.50;6.05;;;;;;;15.56;100.00;101164.69;5421579;32;33187;-86
2023/09/27 05:54:36;;;;;;;14.77;6.00;;;;;;;15.75;100.00;101171.41;5397030;33;33509;-86
2023/09/27 05:57:40;;;;;;;13.32;6.43;;;;;;;15.99;100.00;101175.59;5398048;33;34149;-85
2023/09/27 06:00:46;;;;;;;11.07;6.57;;;;;;;16.28;100.00;101176.50;5421011;32;32955;-89
2023/09/27 06:03:49;;;;;;;8.15;5.47;;;;;;;16.78;100.00;101171.88;5405441;32;33416;-90
2023/09/27 06:06:53;;;;;;;10.88;6.25;;;;;;;16.90;100.00;101178.44;5398060;32;34220;-90
2023/09/27 06:09:56;;;;;;;11.52;6.32;;;;;;;16.96;100.00;101180.41;5384657;33;33318;-86
2023/09/27 06:12:59;;;;;;;11.80;6.43;;;;;;;16.96;100.00;101183.13;5408776;33;33173;-86
2023/09/27 06:16:02;;;;;;;16.83;7.75;;;;;;;17.04;100.00;101184.81;5410915;32;33745;-85
2023/09/27 06:19:05;;;;;;;12.50;6.32;;;;;;;17.12;100.00;101183.81;5413850;32;33344;-86
2023/09/27 06:22:09;;;;;;;12.18;6.90;;;;;;;17.22;100.00;101193.28;5405795;32;34526;-86
2023/09/27 06:25:12;;;;;;;11.75;6.15;;;;;;;17.35;100.00;101191.69;5384578;32;32638;-86
2023/09/27 06:28:19;;;;;;;11.32;7.07;;;;;;;17.38;100.00;101202.16;5390440;32;33219;-86
2023/09/27 06:31:22;;;;;;;12.18;6.50;;;;;;;17.55;100.00;101197.19;5428272;32;34421;-85
2023/09/27 06:34:26;;;;;;;8.98;6.30;;;;;;;17.57;100.00;101203.28;5427772;32;34318;-86
2023/09/27 06:37:28;;;;;;;13.82;6.35;;;;;;;17.72;100.00;101208.56;5414661;32;33510;-86
2023/09/27 06:40:32;;;;;;;11.10;6.45;;;;;;;17.79;100.00;101212.19;5403152;32;33449;-86
2023/09/27 06:43:35;;;;;;;10.60;6.22;;;;;;;17.94;100.00;101212.84;5416913;32;33175;-85
2023/09/27 06:46:38;;;;;;;11.20;5.95;;;;;;;18.03;100.00;101210.78;5418196;32;33498;-85
2023/09/27 06:49:51;;;;;;;7.32;5.43;;;;;;;18.19;100.00;101217.72;5418206;32;33110;-85
2023/09/27 06:52:54;;;;;;;15.38;5.97;;;;;;;18.32;100.00;101215.03;5418116;32;33281;-85
2023/09/27 06:56:13;;;;;;;14.70;6.03;;;;;;;18.46;100.00;101210.41;5418834;32;33848;-87
2023/09/27 06:59:16;;;;;;;13.13;6.37;;;;;;;18.74;100.00;101221.97;5414975;32;34270;-88
2023/09/27 07:02:19;;;;;;;9.57;5.82;;;;;;;18.82;100.00;101223.63;5399491;32;33366;-89
2023/09/27 07:05:22;;;;;;;18.75;6.75;;;;;;;18.93;100.00;101223.00;5414373;32;33302;-89
2023/09/27 07:08:26;;;;;;;10.60;5.80;;;;;;;19.08;100.00;101221.94;5415386;32;33876;-88
2023/09/27 07:11:29;;;;;;;10.93;5.80;;;;;;;19.15;100.00;101220.00;5415575;32;33452;-89
2023/09/27 07:14:36;;;;;;;10.95;6.07;;;;;;;19.24;100.00;101222.28;5421715;32;33346;-88
2023/09/27 07:17:40;;;;;;;10.20;6.05;;;;;;;19.39;100.00;101223.91;5394935;32;33319;-89
2023/09/27 07:20:44;;;;;;;10.88;6.03;;;;;;;19.48;100.00;101222.66;5424624;32;33924;-89
2023/09/27 07:23:49;;;;;;;10.57;6.22;;;;;;;19.62;100.00;101235.16;5435648;32;33324;-88
2023/09/27 07:26:52;;;;;;;9.50;5.72;;;;;;;19.71;100.00;101227.59;5421558;32;33809;-88
2023/09/27 07:29:56;;;;;;;8.85;4.82;;;;;;;19.98;100.00;101222.00;5422180;32;33538;-89
2023/09/27 07:32:59;;;;;;;8.90;6.05;;;;;;;20.04;100.00;101226.59;5398880;32;33267;-89
2023/09/27 07:36:03;;;;;;;9.80;6.35;;;;;;;20.21;100.00;101218.69;5426051;32;33477;-90
2023/09/27 07:39:09;;;;;;;8.48;5.47;;;;;;;20.12;100.00;101232.66;5403769;32;33115;-88
2023/09/27 07:42:12;;;;;;;10.15;5.72;;;;;;;20.17;100.00;101224.59;5409363;32;33981;-87
2023/09/27 07:45:21;;;;;;;9.73;5.22;;;;;;;20.41;100.00;101230.31;5403253;32;33423;-88
2023/09/27 07:48:25;;;;;;;8.35;5.82;;;;;;;20.61;100.00;101233.78;5403379;32;34336;-92
2023/09/27 07:51:28;;;;;;;9.88;5.93;;;;;;;20.71;100.00;101235.16;5414040;32;34861;-93
2023/09/27 07:54:34;;;;;;;11.43;5.72;;;;;;;20.80;100.00;101231.94;5394893;32;33271;-88
2023/09/27 07:57:37;;;;;;;12.05;5.32;;;;;;;20.90;100.00;101234.16;5431582;32;33423;-88
2023/09/27 08:00:41;;;;;;;9.57;5.57;;;;;;;21.14;100.00;101226.94;5418152;32;34161;-88
2023/09/27 08:03:44;;;;;;;9.20;5.65;;;;;;;21.35;100.00;101235.78;5432288;32;33528;-89
2023/09/27 08:06:47;;;;;;;8.35;5.00;;;;;;;21.59;100.00;101231.34;5409727;32;34382;-89
2023/09/27 08:09:51;;;;;;;14.70;5.20;;;;;;;21.68;96.63;101228.03;5415835;32;33996;-89
2023/09/27 08:12:55;;;;;;;10.00;5.15;;;;;;;21.84;97.27;101233.94;5430555;32;33382;-88
2023/09/27 08:15:59;;;;;;;8.27;4.90;;;;;;;21.94;94.98;101237.00;5421068;32;33408;-89
2023/09/27 08:19:02;;;;;;;9.05;4.60;;;;;;;22.15;93.46;101235.62;5403702;32;33153;-88
2023/09/27 08:22:05;;;;;;;8.90;4.90;;;;;;;22.28;92.71;101245.59;5401372;32;33485;-88
2023/09/27 08:25:14;;;;;;;8.88;4.90;;;;;;;22.39;93.76;101236.56;5387669;32;33003;-89
2023/09/27 08:28:20;;;;;;;8.85;5.03;;;;;;;22.49;90.93;101235.97;5430500;32;33971;-88
2023/09/27 08:31:23;;;;;;;9.95;4.72;;;;;;;22.71;92.05;101237.06;5419702;32;33433;-88
2023/09/27 08:34:26;;;;;;;9.30;4.45;;;;;;;22.89;87.16;101238.88;5426037;32;33141;-88
2023/09/27 08:37:29;;;;;;;11.52;4.72;;;;;;;22.87;85.40;101230.88;5411570;32;33194;-87
2023/09/27 08:40:32;;;;;;;8.15;4.93;;;;;;;22.88;85.87;101228.97;5420950;32;33839;-87
2023/09/27 08:43:36;;;;;;;9.07;5.28;;;;;;;23.08;85.21;101228.62;5411773;32;32958;-88
2023/09/27 08:46:40;;;;;;;11.55;5.32;;;;;;;23.14;84.56;101229.56;5410856;32;33407;-87
2023/09/27 08:49:43;;;;;;;9.65;5.32;;;;;;;23.21;82.81;101228.38;5407536;32;33151;-87
2023/09/27 08:52:48;;;;;;;10.93;5.40;;;;;;;23.19;83.38;101227.75;5432698;32;34301;-86
2023/09/27 08:55:51;;;;;;;10.18;5.35;;;;;;;23.37;83.28;101231.44;5444853;32;33069;-87
2023/09/27 08:58:57;;;;;;;9.65;5.60;;;;;;;23.55;84.34;101225.81;5421832;32;33462;-88
2023/09/27 09:02:04;;;;;;;10.13;5.18;;;;;;;23.68;80.26;101228.25;5431736;32;33957;-87
2023/09/27 09:05:11;;;;;;;11.50;5.22;;;;;;;23.60;80.50;101234.13;5421202;32;34524;-87
2023/09/27 09:08:14;;;;;;;8.60;5.03;;;;;;;23.82;78.34;101223.34;5419111;32;33575;-87
2023/09/27 09:11:26;;;;;;;7.87;5.30;;;;;;;24.02;77.73;101222.91;5435614;32;33278;-87
2023/09/27 09:14:43;;;;;;;9.20;5.15;;;;;;;23.93;78.67;101219.72;5406266;32;34471;-87
2023/09/27 09:17:47;;;;;;;10.00;5.25;;;;;;;24.08;79.75;101207.31;5425923;32;33344;-87
2023/09/27 09:20:58;;;;;;;9.13;4.78;;;;;;;24.10;79.33;101210.66;5417424;32;33926;-87
2023/09/27 09:24:19;;;;;;;6.80;4.82;;;;;;;24.24;78.34;101216.69;5429131;32;33174;-91
2023/09/27 09:27:22;;;;;;;7.95;5.10;;;;;;;24.44;76.62;101206.87;5421281;32;34138;-87
2023/09/27 09:30:34;;;;;;;6.00;4.90;;;;;;;24.59;76.81;101203.53;5410521;32;33209;-87
2023/09/27 09:33:38;;;;;;;7.70;4.80;;;;;;;24.54;77.56;101211.75;5408185;32;33492;-88
2023/09/27 09:36:41;;;;;;;10.27;4.62;;;;;;;24.57;76.71;101211.22;5411920;32;34536;-87
2023/09/27 09:39:45;;;;;;;7.65;4.70;;;;;;;24.61;75.17;101217.91;5407226;32;34345;-87
2023/09/27 09:42:49;;;;;;;10.40;5.20;;;;;;;24.42;75.45;101213.69;5409517;32;34020;-87
2023/09/27 09:45:51;;;;;;;7.78;4.97;;;;;;;24.55;76.44;101204.31;5431787;32;33138;-87
2023/09/27 09:48:55;;;;;;;15.82;5.32;;;;;;;24.73;73.51;101203.22;5410174;32;33531;-87
2023/09/27 09:51:58;;;;;;;10.45;4.60;;;;;;;24.85;74.79;101191.00;5412713;32;33365;-87
2023/09/27 09:55:03;;;;;;;6.68;4.22;;;;;;;25.15;73.27;101195.28;5407192;32;33877;-87
2023/09/27 09:58:38;;;;;;;8.43;4.18;;;;;;;25.09;65.54;101188.84;5431431;32;34060;-87
2023/09/27 10:01:45;;;;;;;9.77;4.45;;;;;;;25.26;66.47;101188.00;5432407;32;33301;-87
2023/09/27 10:04:55;;;;;;;6.28;4.35;;;;;;;25.58;63.64;101192.81;5421632;32;33798;-87
2023/09/27 10:07:59;;;;;;;8.25;4.37;;;;;;;25.73;62.74;101191.03;5428543;32;33369;-87
2023/09/27 10:11:06;;;;;;;9.30;4.50;;;;;;;25.83;61.10;101189.50;5404784;32;33512;-87
2023/09/27 10:14:10;;;;;;;13.35;5.00;;;;;;;25.91;62.45;101184.34;5420805;32;34262;-87
2023/09/27 10:17:22;;;;;;;11.00;4.70;;;;;;;26.00;63.07;101182.81;5409366;32;33510;-87
2023/09/27 10:20:24;;;;;;;6.70;4.18;;;;;;;26.24;63.23;101179.72;5409425;32;33364;-87
2023/09/27 10:23:49;;;;;;;7.93;4.03;;;;;;;26.40;60.70;101170.44;5426977;32;33425;-87
2023/09/27 10:26:51;;;;;;;7.43;4.62;;;;;;;26.62;61.30;101173.13;5435310;32;33276;-92
2023/09/27 10:30:00;;;;;;;6.45;4.22;;;;;;;26.54;58.29;101162.59;5418330;32;33545;-89
2023/09/27 10:33:30;;;;;;;8.77;4.45;;;;;;;26.43;56.86;101164.41;5434934;32;33128;-88
2023/09/27 10:36:33;;;;;;;9.20;4.05;;;;;;;26.65;59.38;101155.22;5453014;32;33075;-87
2023/09/27 10:39:39;;;;;;;7.43;4.15;;;;;;;26.83;57.14;101159.47;5427356;32;33054;-87
2023/09/27 10:42:43;;;;;;;4.95;4.37;;;;;;;27.19;56.25;101148.59;5403379;32;34009;-87
2023/09/27 10:45:58;;;;;;;9.43;4.50;;;;;;;26.90;54.44;101158.09;5447908;32;33294;-87
2023/09/27 10:49:01;;;;;;;6.32;4.40;;;;;;;27.24;54.56;101157.75;5438962;32;32886;-86
2023/09/27 10:52:17;;;;;;;5.72;4.30;;;;;;;27.30;53.41;101147.53;5418813;32;34028;-86
2023/09/27 10:55:20;;;;;;;6.05;3.92;;;;;;;27.61;54.72;101150.38;5446064;32;33448;-84
2023/09/27 10:58:26;;;;;;;6.78;4.28;;;;;;;28.07;53.90;101148.56;5430510;32;34457;-87
2023/09/27 11:01:29;;;;;;;6.28;3.83;;;;;;;28.48;50.74;101137.50;5417932;32;34205;-87
2023/09/27 11:04:33;;;;;;;9.07;4.47;;;;;;;28.86;52.03;101130.47;5436511;32;33215;-87
2023/09/27 11:07:48;;;;;;;8.38;4.45;;;;;;;29.42;48.39;101117.50;5429032;32;33258;-85
2023/09/27 11:10:56;;;;;;;4.97;3.97;;;;;;;29.54;48.57;101113.28;5435307;32;33374;-85
2023/09/27 11:14:00;;;;;;;;;;;;;;;29.73;46.19;101110.69;5431308;32;34781;-85
2023/09/27 11:17:22;;;;;;;5.90;3.67;;;;;;;30.45;42.77;101102.59;5431307;32;33590;-85
2023/09/27 11:20:25;;;;;;;7.70;4.15;;;;;;;30.75;40.16;101100.59;5425400;32;33727;-85
2023/09/27 11:23:28;;;;;;;8.82;4.30;;;;;;;31.24;40.54;101102.22;5407795;32;33251;-85
2023/09/27 11:26:32;;;;;;;7.68;4.15;;;;;;;31.08;37.57;101103.53;5414543;32;32654;-89
2023/09/27 11:29:36;;;;;;;7.00;3.97;;;;;;;31.67;38.78;101102.16;5392417;32;33110;-89
2023/09/27 11:32:52;;;;;;;9.15;4.22;;;;;;;32.00;36.10;101093.88;5418305;32;33141;-90
2023/09/27 11:35:55;;;;;;;5.45;3.67;;;;;;;32.95;32.74;101086.78;5412720;32;33416;-86
2023/09/27 11:38:58;;;;;;;8.05;4.10;;;;;;;34.01;31.50;101089.41;5419542;32;32891;-86
2023/09/27 11:42:02;;;;;;;6.30;3.50;;;;;;;34.31;29.02;101087.78;5434645;32;34083;-86
2023/09/27 11:45:08;;;;;;;9.20;3.37;;;;;;;35.20;26.99;101080.25;5397902;32;33578;-86
2023/09/27 11:48:11;;;;;;;7.18;3.62;;;;;;;36.26;27.14;101077.87;5423340;32;33537;-85
2023/09/27 11:51:14;;;;;;;7.35;3.87;;;;;;;36.85;24.29;101068.72;5428684;32;32124;-86
2023/09/27 11:54:17;;;;;;;8.32;3.92;;;;;;;37.57;24.23;101069.59;5403348;32;33785;-86
2023/09/27 11:57:20;;;;;;;6.32;3.35;;;;;;;39.05;24.49;101065.06;5401850;32;33423;-86
2023/09/27 12:00:23;;;;;;;8.68;3.45;;;;;;;39.45;22.06;101064.28;5397943;32;34080;-85
2023/09/27 12:03:26;;;;;;;6.60;3.87;;;;;;;39.92;22.69;101059.97;5432721;32;33037;-86
2023/09/27 12:06:31;;;;;;;7.72;3.40;;;;;;;39.74;22.04;101054.66;5411370;32;34070;-86
2023/09/27 12:09:35;;;;;;;6.40;3.30;;;;;;;39.74;20.82;101049.03;5422120;32;33359;-86
2023/09/27 12:12:37;;;;;;;7.05;3.20;;;;;;;40.75;19.67;101050.47;5412753;32;33140;-86
2023/09/27 12:15:43;;;;;;;5.23;2.93;;;;;;;39.45;20.84;101044.56;5408291;32;33486;-86
2023/09/27 12:18:47;;;;;;;4.20;3.30;;;;;;;41.44;19.20;101035.84;5422002;32;33024;-86
2023/09/27 12:21:50;;;;;;;5.25;2.87;;;;;;;42.32;18.74;101035.94;5403207;32;33281;-86
2023/09/27 12:24:53;;;;;;;7.20;3.40;;;;;;;42.38;17.92;101029.97;5394974;32;33009;-86
2023/09/27 12:27:56;;;;;;;4.55;3.20;;;;;;;41.98;18.37;101032.12;5410605;32;32991;-86
2023/09/27 12:30:59;;;;;;;6.28;2.72;;;;;;;42.18;19.22;101032.03;5407373;32;33218;-86
2023/09/27 12:34:02;;;;;;;6.07;3.28;;;;;;;42.43;18.40;101027.63;5412201;32;33043;-86
2023/09/27 12:37:05;;;;;;;3.45;3.08;;;;;;;42.51;17.86;101018.06;5402905;32;34000;-85
2023/09/27 12:40:09;;;;;;;3.10;2.80;;;;;;;42.62;17.72;101018.22;5391731;32;33289;-86
2023/09/27 12:43:12;;;;;;;5.10;2.95;;;;;;;42.64;17.45;101027.16;5424082;32;34226;-86
2023/09/27 12:46:15;;;;;;;6.35;3.30;;;;;;;42.49;17.86;101019.66;5401231;32;33494;-86
2023/09/27 12:49:18;;;;;;;7.72;3.30;;;;;;;44.19;16.81;101005.16;5404290;32;34158;-86
2023/09/27 12:52:21;;;;;;;4.60;3.00;;;;;;;44.31;16.29;101004.84;5432936;32;33983;-86
2023/09/27 12:55:24;;;;;;;7.15;3.12;;;;;;;45.38;15.81;101003.88;5407196;32;33319;-86
2023/09/27 12:58:28;;;;;;;5.20;2.97;;;;;;;43.85;16.23;100993.06;5409462;32;33228;-85
2023/09/27 13:01:31;;;;;;;5.00;2.90;;;;;;;44.10;16.26;100990.50;5394673;32;33581;-86
2023/09/27 13:04:34;;;;;;;2.87;2.58;;;;;;;44.62;16.13;100988.47;5393728;32;33395;-86
2023/09/27 13:07:38;;;;;;;2.95;2.47;;;;;;;43.24;16.17;100984.72;5403668;32;34081;-86
2023/09/27 13:10:41;;;;;;;6.25;2.95;;;;;;;43.83;16.84;100981.31;5393358;32;33612;-86
2023/09/27 13:13:44;;;;;;;3.97;3.03;;;;;;;44.41;16.33;100989.16;5390506;32;33462;-86
2023/09/27 13:16:47;;;;;;;5.18;2.90;;;;;;;44.69;15.82;100984.84;5416853;32;33472;-86
2023/09/27 13:19:53;;;;;;;3.08;2.78;;;;;;;43.86;16.19;100969.19;5417739;32;33460;-86
2023/09/27 13:22:57;;;;;;;4.32;3.05;;;;;;;41.61;17.42;100972.41;5404909;32;33327;-86
2023/09/27 13:25:59;;;;;;;4.82;3.00;;;;;;;38.44;19.81;100970.25;5393494;32;33143;-86
2023/09/27 13:29:03;;;;;;;6.95;3.08;;;;;;;38.63;20.58;100968.81;5408771;32;33234;-86
2023/09/27 13:32:06;;;;;;;4.40;2.90;;;;;;;37.50;21.04;100971.00;5420094;32;34124;-89
2023/09/27 13:35:09;;;;;;;4.60;2.95;;;;;;;35.36;22.74;100969.41;5406324;32;34240;-89
2023/09/27 13:38:12;;;;;;;7.43;3.30;;;;;;;36.61;21.57;100962.75;5414762;32;33504;-90
2023/09/27 13:41:15;;;;;;;4.65;3.12;;;;;;;36.79;21.64;100946.63;5420564;32;33588;-89
2023/09/27 13:44:18;;;;;;;9.90;3.30;;;;;;;37.66;21.25;100946.69;5404495;32;33832;-85
2023/09/27 13:47:22;;;;;;;3.58;3.12;;;;;;;36.89;21.56;100945.41;5427079;32;34483;-86
2023/09/27 13:50:24;;;;;;;8.48;3.40;;;;;;;34.20;24.46;100949.47;5412678;32;34110;-85
2023/09/27 13:53:28;;;;;;;5.40;3.20;;;;;;;32.41;26.85;100942.63;5410164;32;32782;-86
2023/09/27 13:56:31;;;;;;;4.93;3.12;;;;;;;31.65;28.42;100947.69;5408532;32;32778;-86
2023/09/27 13:59:34;;;;;;;4.62;3.30;;;;;;;31.12;28.83;100955.25;5423693;32;33576;-85
2023/09/27 14:02:37;;;;;;;6.18;3.60;;;;;;;29.97;30.58;100951.66;5411129;32;33222;-84
2023/09/27 14:05:44;;;;;;;8.15;3.58;;;;;;;29.75;31.30;100947.47;5416340;32;33735;-84
2023/09/27 14:08:49;;;;;;;6.97;4.07;;;;;;;29.44;32.15;100940.50;5426482;32;34450;-84
2023/09/27 14:11:53;;;;;;;8.43;3.72;;;;;;;28.88;32.85;100944.50;5427624;32;33500;-84
2023/09/27 14:14:58;;;;;;;11.80;3.78;;;;;;;28.78;33.17;100944.53;5418050;32;33509;-84
2023/09/27 14:18:01;;;;;;;5.85;3.53;;;;;;;28.32;34.47;100940.03;5441516;32;33365;-84
2023/09/27 14:21:06;;;;;;;7.80;3.53;;;;;;;27.89;35.53;100927.69;5397246;32;33365;-84
2023/09/27 14:24:10;;;;;;;5.65;3.30;;;;;;;27.55;34.80;100933.78;5419295;32;33228;-84
2023/09/27 14:27:12;;;;;;;6.85;3.80;;;;;;;27.52;35.25;100926.06;5417904;32;35106;-84
2023/09/27 14:30:16;;;;;;;6.05;3.55;;;;;;;27.61;35.65;100921.59;5407675;32;33582;-84
2023/09/27 14:33:18;;;;;;;7.18;3.62;;;;;;;27.25;36.26;100920.81;5410460;32;33069;-84
2023/09/27 14:36:22;;;;;;;3.60;3.20;;;;;;;27.21;36.18;100922.47;5410583;32;33538;-84
2023/09/27 14:39:25;;;;;;;4.80;2.90;;;;;;;27.08;36.65;100924.63;5410436;32;33602;-84
2023/09/27 14:42:28;;;;;;;7.78;3.60;;;;;;;26.82;34.66;100931.22;5422880;32;33415;-83
2023/09/27 14:45:31;;;;;;;8.90;3.67;;;;;;;26.65;35.33;100928.72;5422081;32;33390;-84
2023/09/27 14:48:34;;;;;;;4.87;3.28;;;;;;;26.57;35.79;100926.47;5406070;32;33498;-84
2023/09/27 14:51:38;;;;;;;4.60;3.35;;;;;;;26.49;35.20;100929.72;5420605;32;33000;-84
2023/09/27 14:54:41;;;;;;;6.15;3.22;;;;;;;26.48;34.87;100928.06;5416859;32;32901;-84
2023/09/27 14:57:45;;;;;;;6.75;3.62;;;;;;;26.34;34.74;100931.31;5407607;32;32929;-85
2023/09/27 15:00:48;;;;;;;4.40;3.58;;;;;;;26.16;35.42;100921.56;5417587;32;32896;-85
2023/09/27 15:03:50;;;;;;;8.27;3.92;;;;;;;26.03;36.55;100924.81;5405198;32;33559;-85
2023/09/27 15:06:54;;;;;;;5.18;3.50;;;;;;;26.08;36.37;100924.00;5406860;32;34078;-85
2023/09/27 15:09:57;;;;;;;8.55;4.20;;;;;;;25.93;37.39;100922.00;5404377;32;33498;-85
2023/09/27 15:13:03;;;;;;;5.75;3.50;;;;;;;25.77;38.27;100926.56;5404148;32;33661;-85
2023/09/27 15:16:06;;;;;;;8.32;4.10;;;;;;;25.72;39.48;100929.28;5404533;32;33184;-85
2023/09/27 15:19:09;;;;;;;6.20;3.70;;;;;;;25.62;39.97;100923.69;5400481;32;121936;-85
2023/09/27 15:22:14;;;;;;;6.10;4.20;;;;;;;25.61;40.38;100927.56;5391981;32;34437;-85
2023/09/27 15:25:17;;;;;;;5.57;3.60;;;;;;;25.56;40.62;100917.31;5404882;32;33377;-85
2023/09/27 15:28:20;;;;;;;5.70;3.47;;;;;;;25.50;39.75;100918.37;5403934;32;33087;-85
2023/09/27 15:31:23;;;;;;;5.85;3.95;;;;;;;25.37;40.12;100925.16;5404189;32;34776;-85
2023/09/27 15:34:26;;;;;;;6.78;3.83;;;;;;;25.30;39.78;100919.88;5404213;32;34957;-85
2023/09/27 15:37:29;;;;;;;6.57;3.80;;;;;;;25.26;38.81;100927.00;5404605;32;33264;-85
2023/09/27 15:40:32;;;;;;;7.90;3.55;;;;;;;25.19;38.82;100923.62;5417064;32;33963;-86
2023/09/27 15:43:35;;;;;;;7.47;3.72;;;;;;;25.11;39.00;100924.91;5404311;32;33247;-87
2023/09/27 15:46:43;;;;;;;7.05;3.58;;;;;;;25.03;38.87;100919.84;5404163;32;33698;-90
2023/09/27 15:49:46;;;;;;;6.12;3.92;;;;;;;24.99;39.02;100915.97;5417429;32;33521;-90
2023/09/27 15:52:49;;;;;;;5.43;3.75;;;;;;;24.79;39.80;100921.28;5404338;32;33829;-86
